createdAt,value
2019-01-26T00:00:37.796Z,8.80
2019-01-26T00:03:09.426Z,8.95
2019-01-26T00:05:40.979Z,8.35
2019-01-26T00:08:12.509Z,8.10
2019-01-26T00:10:44.038Z,8.08
2019-01-26T00:13:15.551Z,8.38
2019-01-26T00:15:47.084Z,7.58
2019-01-26T00:18:20.916Z,7.22
2019-01-26T00:20:52.433Z,7.60
2019-01-26T00:23:23.982Z,7.95
2019-01-26T00:25:55.493Z,7.25
2019-01-26T00:28:27.082Z,7.47
2019-01-26T00:30:58.547Z,7.50
2019-01-26T00:33:30.091Z,7.22
2019-01-26T00:36:03.408Z,7.87
2019-01-26T00:38:36.671Z,6.83
2019-01-26T00:41:08.237Z,6.92
2019-01-26T00:43:39.776Z,7.33
2019-01-26T00:46:11.283Z,7.17
2019-01-26T00:48:46.791Z,7.25
2019-01-26T00:51:19.360Z,7.30
2019-01-26T00:53:51.926Z,7.05
2019-01-26T00:56:24.838Z,7.20
2019-01-26T00:59:00.115Z,8.25
2019-01-26T01:01:32.639Z,7.45
2019-01-26T01:04:04.178Z,7.70
2019-01-26T01:06:35.687Z,7.78
2019-01-26T01:09:08.306Z,7.08
2019-01-26T01:11:39.818Z,7.33
2019-01-26T01:14:11.393Z,7.97
2019-01-26T01:16:42.922Z,7.47
2019-01-26T01:19:14.465Z,8.05
2019-01-26T01:21:46.024Z,8.13
2019-01-26T01:24:17.620Z,7.83
2019-01-26T01:26:49.131Z,9.13
2019-01-26T01:29:20.668Z,8.88
2019-01-26T01:31:53.181Z,8.48
2019-01-26T01:34:25.702Z,8.80
2019-01-26T01:36:57.452Z,9.03
2019-01-26T01:39:30.112Z,8.65
2019-01-26T01:42:01.688Z,8.78
2019-01-26T01:44:34.204Z,8.80
2019-01-26T01:47:05.736Z,8.68
2019-01-26T01:49:37.291Z,8.53
2019-01-26T01:52:08.808Z,9.35
2019-01-26T01:54:40.336Z,9.40
2019-01-26T01:57:11.871Z,9.78
2019-01-26T01:59:43.377Z,9.10
2019-01-26T02:02:14.919Z,9.25
2019-01-26T02:04:46.426Z,8.80
2019-01-26T02:07:18.012Z,9.23
2019-01-26T02:09:49.593Z,9.08
2019-01-26T02:12:21.122Z,10.00
2019-01-26T02:14:52.666Z,9.30
2019-01-26T02:17:24.189Z,10.28
2019-01-26T02:19:56.792Z,9.83
2019-01-26T02:22:28.335Z,10.40
2019-01-26T02:25:00.883Z,10.35
2019-01-26T02:27:33.395Z,10.98
2019-01-26T02:30:05.939Z,10.45
2019-01-26T02:32:38.436Z,10.32
2019-01-26T02:35:10.960Z,10.60
2019-01-26T02:37:42.486Z,10.65
2019-01-26T02:40:18.822Z,10.60
2019-01-26T02:42:51.909Z,10.70
2019-01-26T02:45:23.458Z,11.25
2019-01-26T02:47:54.964Z,10.20
2019-01-26T02:50:26.517Z,10.50
2019-01-26T02:52:58.098Z,10.15
2019-01-26T02:55:29.608Z,9.88
2019-01-26T02:58:02.224Z,9.48
2019-01-26T03:00:33.765Z,9.70
2019-01-26T03:03:05.266Z,8.85
2019-01-26T03:05:36.821Z,9.80
2019-01-26T03:08:09.918Z,8.88
2019-01-26T03:10:41.506Z,9.18
2019-01-26T03:13:13.036Z,8.93
2019-01-26T03:15:44.583Z,9.30
2019-01-26T03:18:19.641Z,8.23
2019-01-26T03:20:51.208Z,8.50
2019-01-26T03:23:24.988Z,8.53
2019-01-26T03:25:56.537Z,8.78
2019-01-26T03:28:28.064Z,9.08
2019-01-26T03:31:00.745Z,8.35
2019-01-26T03:33:32.274Z,8.55
2019-01-26T03:36:04.065Z,8.60
2019-01-26T03:38:36.585Z,9.00
2019-01-26T03:41:08.184Z,8.65
2019-01-26T03:43:39.738Z,8.90
2019-01-26T03:46:11.625Z,8.70
2019-01-26T03:48:43.157Z,8.40
2019-01-26T03:51:14.701Z,8.50
2019-01-26T03:53:46.335Z,9.15
2019-01-26T03:56:17.875Z,8.58
2019-01-26T03:58:49.394Z,8.60
2019-01-26T04:01:20.907Z,7.90
2019-01-26T04:03:52.450Z,7.97
2019-01-26T04:06:24.005Z,8.25
2019-01-26T04:08:55.700Z,8.30
2019-01-26T04:11:27.232Z,8.15
2019-01-26T04:13:59.117Z,8.80
2019-01-26T04:16:30.624Z,8.73
2019-01-26T04:19:02.438Z,8.78
2019-01-26T04:21:34.016Z,8.43
2019-01-26T04:24:07.143Z,8.60
2019-01-26T04:26:38.759Z,8.60
2019-01-26T04:29:11.397Z,8.68
2019-01-26T04:31:43.110Z,8.73
2019-01-26T04:34:14.640Z,9.60
2019-01-26T04:36:47.385Z,9.05
2019-01-26T04:39:18.896Z,9.10
2019-01-26T04:41:51.442Z,9.08
2019-01-26T04:44:24.086Z,9.60
2019-01-26T04:46:56.594Z,8.75
2019-01-26T04:49:28.148Z,8.68
2019-01-26T04:51:59.677Z,8.63
2019-01-26T04:54:31.209Z,8.83
2019-01-26T04:57:02.758Z,9.08
2019-01-26T04:59:37.986Z,9.03
2019-01-26T05:02:09.509Z,9.15
2019-01-26T05:04:42.133Z,8.08
2019-01-26T05:07:17.441Z,8.95
2019-01-26T05:09:50.027Z,8.48
2019-01-26T05:12:22.561Z,9.23
2019-01-26T05:14:55.107Z,9.30
2019-01-26T05:17:28.354Z,9.35
2019-01-26T05:20:01.061Z,8.88
2019-01-26T05:22:33.590Z,9.33
2019-01-26T05:25:05.148Z,9.65
2019-01-26T05:27:36.766Z,9.48
2019-01-26T05:30:09.381Z,9.38
2019-01-26T05:32:42.560Z,9.30
2019-01-26T05:35:13.922Z,9.68
2019-01-26T05:37:45.533Z,9.13
2019-01-26T05:40:17.985Z,10.08
2019-01-26T05:42:49.842Z,9.65
2019-01-26T05:45:22.116Z,10.43
2019-01-26T05:47:57.482Z,9.43
2019-01-26T05:50:30.256Z,9.03
2019-01-26T05:53:05.289Z,9.48
2019-01-26T05:55:36.937Z,9.13
2019-01-26T05:58:08.451Z,9.65
2019-01-26T06:00:40.022Z,9.05
2019-01-26T06:03:11.574Z,9.53
2019-01-26T06:05:43.965Z,8.90
2019-01-26T06:08:15.614Z,9.30
2019-01-26T06:10:48.117Z,10.18
2019-01-26T06:13:19.646Z,8.93
2019-01-26T06:15:51.281Z,9.85
2019-01-26T06:18:24.379Z,8.68
2019-01-26T06:20:57.229Z,9.70
2019-01-26T06:23:28.761Z,8.73
2019-01-26T06:26:06.301Z,9.03
2019-01-26T06:28:38.805Z,8.83
2019-01-26T06:31:11.478Z,9.15
2019-01-26T06:33:43.021Z,8.90
2019-01-26T06:36:14.583Z,10.05
2019-01-26T06:38:46.125Z,9.50
2019-01-26T06:41:17.656Z,10.32
2019-01-26T06:43:49.516Z,10.40
2019-01-26T06:46:21.068Z,9.28
2019-01-26T06:48:53.650Z,10.45
2019-01-26T06:51:25.210Z,10.82
2019-01-26T06:53:56.755Z,10.28
2019-01-26T06:56:29.944Z,10.90
2019-01-26T06:59:01.457Z,11.25
2019-01-26T07:01:33.012Z,10.53
2019-01-26T07:04:04.538Z,11.00
2019-01-26T07:06:37.152Z,11.70
2019-01-26T07:09:09.390Z,11.28
2019-01-26T07:11:41.039Z,11.05
2019-01-26T07:14:12.553Z,11.55
2019-01-26T07:16:44.298Z,11.08
2019-01-26T07:19:15.800Z,11.88
2019-01-26T07:21:48.308Z,12.20
2019-01-26T07:24:20.831Z,11.63
2019-01-26T07:26:52.479Z,13.10
2019-01-26T07:29:24.972Z,12.80
2019-01-26T07:31:56.515Z,13.48
2019-01-26T07:34:28.039Z,13.53
2019-01-26T07:37:00.016Z,13.95
2019-01-26T07:39:34.391Z,12.82
2019-01-26T07:42:05.943Z,13.18
2019-01-26T07:44:37.464Z,13.88
2019-01-26T07:47:09.020Z,13.13
2019-01-26T07:49:40.544Z,13.43
2019-01-26T07:52:13.179Z,13.22
2019-01-26T07:54:45.065Z,13.70
2019-01-26T07:57:17.571Z,13.68
2019-01-26T07:59:49.091Z,14.30
2019-01-26T08:02:20.965Z,13.80
2019-01-26T08:04:52.635Z,14.47
2019-01-26T08:07:24.171Z,13.50
2019-01-26T08:09:55.720Z,13.83
2019-01-26T08:12:27.278Z,14.68
2019-01-26T08:14:59.980Z,14.28
2019-01-26T08:17:31.561Z,13.98
2019-01-26T08:20:03.212Z,13.78
2019-01-26T08:22:34.703Z,14.35
2019-01-26T08:25:06.818Z,14.28
2019-01-26T08:27:38.349Z,13.90
2019-01-26T08:30:16.881Z,14.23
2019-01-26T08:32:52.170Z,14.83
2019-01-26T08:35:23.716Z,14.03
2019-01-26T08:37:56.161Z,13.95
2019-01-26T08:40:27.797Z,12.85
2019-01-26T08:42:59.337Z,13.95
2019-01-26T08:45:31.063Z,13.48
2019-01-26T08:48:03.586Z,13.13
2019-01-26T08:50:35.145Z,13.70
2019-01-26T08:53:06.658Z,13.38
2019-01-26T08:55:41.887Z,13.13
2019-01-26T08:58:13.424Z,13.05
2019-01-26T09:00:44.980Z,12.95
2019-01-26T09:03:26.368Z,13.50
2019-01-26T09:06:01.856Z,12.90
2019-01-26T09:08:33.387Z,12.60
2019-01-26T09:11:06.001Z,12.85
2019-01-26T09:13:37.543Z,13.32
2019-01-26T09:16:09.056Z,12.93
2019-01-26T09:18:40.647Z,12.28
2019-01-26T09:21:13.072Z,12.23
2019-01-26T09:23:44.657Z,13.25
2019-01-26T09:26:16.196Z,12.43
2019-01-26T09:28:47.816Z,12.90
2019-01-26T09:31:19.335Z,12.55
2019-01-26T09:33:51.920Z,12.80
2019-01-26T09:36:24.725Z,13.15
2019-01-26T09:38:56.276Z,12.85
2019-01-26T09:41:27.804Z,11.75
2019-01-26T09:43:59.374Z,13.05
2019-01-26T09:46:31.512Z,12.53
2019-01-26T09:49:06.708Z,12.40
2019-01-26T09:51:38.241Z,12.50
2019-01-26T09:54:09.764Z,12.33
2019-01-26T09:56:41.318Z,12.45
2019-01-26T09:59:13.658Z,11.53
2019-01-26T10:01:45.303Z,11.83
2019-01-26T10:04:17.129Z,11.85
2019-01-26T10:06:48.659Z,12.00
2019-01-26T10:09:20.185Z,11.63
2019-01-26T10:11:52.669Z,12.03
2019-01-26T10:14:24.302Z,11.53
2019-01-26T10:16:55.827Z,11.20
2019-01-26T10:19:27.343Z,12.23
2019-01-26T10:21:58.936Z,11.33
2019-01-26T10:24:30.617Z,11.18
2019-01-26T10:27:02.213Z,11.15
2019-01-26T10:29:33.788Z,10.90
2019-01-26T10:32:05.487Z,10.98
2019-01-26T10:34:36.996Z,11.18
2019-01-26T10:37:09.861Z,10.82
2019-01-26T10:39:41.416Z,11.25
2019-01-26T10:42:14.079Z,10.98
2019-01-26T10:44:45.621Z,11.12
2019-01-26T10:47:17.173Z,11.57
2019-01-26T10:49:48.686Z,12.85
2019-01-26T10:52:20.377Z,13.85
2019-01-26T10:54:51.912Z,16.30
2019-01-26T10:57:24.696Z,20.82
2019-01-26T10:59:57.519Z,19.67
2019-01-26T11:02:29.237Z,19.35
2019-01-26T11:05:01.708Z,16.80
2019-01-26T11:07:33.203Z,14.83
2019-01-26T11:10:04.759Z,14.00
2019-01-26T11:12:36.330Z,14.03
2019-01-26T11:15:08.918Z,13.08
2019-01-26T11:17:40.450Z,12.70
2019-01-26T11:20:13.046Z,12.80
2019-01-26T11:22:44.585Z,12.07
2019-01-26T11:25:16.112Z,11.22
2019-01-26T11:27:47.652Z,12.00
2019-01-26T11:30:23.665Z,11.88
2019-01-26T11:32:55.224Z,11.48
2019-01-26T11:35:27.346Z,11.10
2019-01-26T11:37:58.864Z,10.95
2019-01-26T11:40:30.413Z,11.40
2019-01-26T11:43:01.955Z,11.05
2019-01-26T11:45:46.715Z,10.45
2019-01-26T11:48:28.533Z,11.33
2019-01-26T11:51:13.363Z,10.72
2019-01-26T11:53:44.876Z,10.68
2019-01-26T11:56:20.260Z,10.30
2019-01-26T11:58:52.018Z,10.60
2019-01-26T12:01:40.514Z,10.25
2019-01-26T12:04:25.303Z,11.05
2019-01-26T12:06:58.874Z,10.05
2019-01-26T12:09:30.405Z,10.32
2019-01-26T12:12:01.942Z,10.78
2019-01-26T12:14:33.525Z,9.63
2019-01-26T12:17:05.069Z,9.70
2019-01-26T12:19:36.610Z,9.83
2019-01-26T12:22:08.150Z,9.53
2019-01-26T12:24:39.701Z,9.08
2019-01-26T12:27:11.228Z,9.30
2019-01-26T12:29:42.802Z,9.10
2019-01-26T12:32:14.426Z,9.28
2019-01-26T12:34:46.072Z,8.83
2019-01-26T12:37:17.615Z,8.83
2019-01-26T12:39:49.258Z,9.35
2019-01-26T12:42:20.790Z,9.38
2019-01-26T12:44:52.323Z,8.25
2019-01-26T12:47:24.420Z,8.68
2019-01-26T12:49:56.022Z,8.75
2019-01-26T12:52:27.537Z,8.80
2019-01-26T12:55:00.399Z,8.65
2019-01-26T12:57:31.919Z,8.83
2019-01-26T13:00:03.512Z,8.40
2019-01-26T13:02:35.036Z,8.75
2019-01-26T13:05:07.043Z,9.58
2019-01-26T13:07:38.554Z,8.88
2019-01-26T13:10:11.155Z,8.25
2019-01-26T13:12:42.668Z,9.48
2019-01-26T13:15:15.390Z,8.75
2019-01-26T13:17:47.019Z,8.75
2019-01-26T13:20:18.565Z,8.35
2019-01-26T13:22:50.084Z,8.85
2019-01-26T13:25:21.591Z,8.48
2019-01-26T13:27:54.202Z,8.70
2019-01-26T13:30:26.030Z,8.43
2019-01-26T13:32:57.546Z,8.28
2019-01-26T13:35:29.081Z,8.73
2019-01-26T13:38:03.879Z,8.68
2019-01-26T13:40:36.131Z,8.50
2019-01-26T13:43:07.694Z,8.80
2019-01-26T13:45:39.219Z,9.28
2019-01-26T13:48:10.737Z,8.75
2019-01-26T13:50:42.277Z,9.60
2019-01-26T13:53:13.787Z,9.68
2019-01-26T13:55:45.362Z,8.75
2019-01-26T13:58:16.965Z,8.80
2019-01-26T14:00:48.499Z,9.40
2019-01-26T14:03:20.003Z,9.18
2019-01-26T14:05:51.837Z,9.58
2019-01-26T14:08:25.467Z,9.25
2019-01-26T14:10:58.080Z,9.55
2019-01-26T14:13:29.605Z,10.45
2019-01-26T14:16:01.342Z,9.63
2019-01-26T14:18:32.850Z,9.65
2019-01-26T14:21:04.486Z,10.63
2019-01-26T14:23:36.010Z,9.78
2019-01-26T14:26:07.544Z,10.45
2019-01-26T14:28:39.095Z,9.55
2019-01-26T14:31:10.705Z,9.70
2019-01-26T14:33:42.211Z,9.60
2019-01-26T14:36:13.814Z,10.03
2019-01-26T14:38:45.494Z,9.93
2019-01-26T14:41:18.022Z,10.43
2019-01-26T14:43:49.516Z,9.83
2019-01-26T14:46:21.052Z,10.58
2019-01-26T14:48:53.582Z,9.63
2019-01-26T14:51:26.261Z,9.45
2019-01-26T14:53:57.770Z,9.65
2019-01-26T14:56:29.655Z,9.60
2019-01-26T14:59:01.186Z,9.63
2019-01-26T15:01:32.764Z,9.50
2019-01-26T15:04:05.235Z,9.48
2019-01-26T15:06:36.760Z,9.25
2019-01-26T15:09:10.358Z,9.58
2019-01-26T15:11:41.975Z,9.73
2019-01-26T15:14:13.483Z,9.63
2019-01-26T15:16:45.020Z,9.40
2019-01-26T15:19:16.530Z,9.48
2019-01-26T15:21:48.092Z,9.50
2019-01-26T15:24:19.629Z,9.90
2019-01-26T15:26:51.255Z,9.35
2019-01-26T15:29:24.357Z,9.68
2019-01-26T15:31:55.924Z,9.13
2019-01-26T15:34:28.490Z,9.00
2019-01-26T15:37:00.712Z,10.40
2019-01-26T15:39:32.502Z,9.28
2019-01-26T15:42:04.038Z,9.38
2019-01-26T15:44:36.562Z,9.43
2019-01-26T15:47:08.129Z,9.20
2019-01-26T15:49:39.853Z,9.38
2019-01-26T15:52:11.363Z,9.50
2019-01-26T15:54:42.971Z,8.90
2019-01-26T15:57:14.549Z,9.60
2019-01-26T15:59:53.129Z,9.15
2019-01-26T16:02:18.757Z,9.28
2019-01-26T16:04:50.571Z,9.73
2019-01-26T16:07:23.053Z,9.03
2019-01-26T16:09:54.693Z,9.23
2019-01-26T16:12:27.199Z,9.55
2019-01-26T16:14:58.821Z,9.75
2019-01-26T16:17:30.403Z,9.80
2019-01-26T16:20:02.021Z,9.43
2019-01-26T16:22:33.531Z,9.50
2019-01-26T16:25:05.065Z,9.68
2019-01-26T16:27:36.691Z,9.75
2019-01-26T16:30:12.269Z,9.38
2019-01-26T16:32:43.870Z,9.40
2019-01-26T16:35:16.187Z,9.68
2019-01-26T16:37:48.118Z,9.75
2019-01-26T16:40:20.819Z,9.45
2019-01-26T16:42:52.376Z,10.08
2019-01-26T16:45:25.151Z,9.75
2019-01-26T16:47:56.744Z,9.65
2019-01-26T16:50:28.900Z,9.38
2019-01-26T16:53:00.462Z,10.30
2019-01-26T16:55:31.958Z,9.85
2019-01-26T16:58:03.492Z,10.15
2019-01-26T17:00:46.305Z,9.85
2019-01-26T17:03:21.877Z,10.25
2019-01-26T17:05:53.410Z,9.93
2019-01-26T17:08:25.101Z,9.78
2019-01-26T17:10:58.252Z,9.58
2019-01-26T17:13:30.187Z,9.45
2019-01-26T17:16:01.760Z,9.83
2019-01-26T17:18:33.283Z,10.55
2019-01-26T17:21:04.829Z,10.13
2019-01-26T17:23:36.386Z,10.10
2019-01-26T17:26:07.902Z,9.30
2019-01-26T17:28:39.532Z,9.35
2019-01-26T17:31:12.039Z,8.95
2019-01-26T17:33:43.663Z,9.73
2019-01-26T17:36:15.175Z,9.43
2019-01-26T17:38:46.716Z,9.13
2019-01-26T17:41:18.220Z,9.50
2019-01-26T17:43:49.775Z,9.00
2019-01-26T17:46:21.289Z,10.08
2019-01-26T17:48:52.831Z,9.88
2019-01-26T17:51:25.409Z,9.65
2019-01-26T17:53:56.934Z,9.48
2019-01-26T17:56:28.474Z,9.33
2019-01-26T17:59:00.085Z,9.33
2019-01-26T18:04:20.428Z,9.20
2019-01-26T18:06:52.927Z,8.65
2019-01-26T18:09:25.435Z,9.28
2019-01-26T18:11:56.952Z,9.70
2019-01-26T18:14:29.459Z,8.73
2019-01-26T18:17:01.956Z,9.05
2019-01-26T18:19:34.568Z,9.30
2019-01-26T18:22:07.060Z,8.78
2019-01-26T18:24:39.676Z,9.50
2019-01-26T18:27:12.146Z,9.08
2019-01-26T18:29:45.920Z,9.58
2019-01-26T18:32:18.421Z,9.25
2019-01-26T18:34:52.151Z,9.68
2019-01-26T18:37:25.182Z,9.75
2019-01-26T18:39:57.738Z,9.63
2019-01-26T18:42:30.239Z,9.73
2019-01-26T18:45:02.771Z,9.20
2019-01-26T18:47:35.268Z,9.18
2019-01-26T18:50:13.127Z,8.98
2019-01-26T18:52:45.669Z,9.10
2019-01-26T18:55:18.178Z,9.43
2019-01-26T18:57:50.659Z,9.35
2019-01-26T19:00:24.781Z,9.78
2019-01-26T19:02:59.374Z,9.13
2019-01-26T19:05:33.270Z,10.10
2019-01-26T19:08:05.778Z,9.45
2019-01-26T19:10:37.343Z,9.78
2019-01-26T19:13:09.843Z,9.25
2019-01-26T19:15:42.342Z,8.83
2019-01-26T19:18:14.836Z,9.08
2019-01-26T19:20:47.359Z,9.80
2019-01-26T19:23:19.839Z,9.70
2019-01-26T19:25:52.365Z,9.50
2019-01-26T19:28:24.859Z,10.03
2019-01-26T19:30:57.377Z,9.20
2019-01-26T19:33:29.874Z,9.43
2019-01-26T19:36:02.408Z,9.65
2019-01-26T19:38:34.908Z,9.83
2019-01-26T19:41:07.412Z,9.80
2019-01-26T19:43:39.864Z,9.43
2019-01-26T19:46:12.432Z,10.00
2019-01-26T19:48:44.924Z,9.05
2019-01-26T19:51:17.452Z,10.30
2019-01-26T19:53:49.948Z,9.83
2019-01-26T19:56:22.455Z,9.60
2019-01-26T19:58:54.947Z,10.23
2019-01-26T20:01:27.447Z,10.20
2019-01-26T20:03:59.958Z,9.70
2019-01-26T20:06:32.513Z,9.95
2019-01-26T20:09:09.409Z,10.25
2019-01-26T20:11:41.052Z,9.35
2019-01-26T20:14:13.544Z,9.83
2019-01-26T20:16:46.151Z,9.13
2019-01-26T20:19:18.683Z,9.53
2019-01-26T20:21:51.170Z,10.75
2019-01-26T20:24:23.668Z,10.30
2019-01-26T20:26:56.221Z,10.03
2019-01-26T20:29:28.658Z,10.15
2019-01-26T20:32:01.208Z,10.80
2019-01-26T20:34:33.703Z,9.93
2019-01-26T20:37:06.241Z,11.05
2019-01-26T20:39:38.723Z,9.95
2019-01-26T20:42:11.256Z,10.70
2019-01-26T20:44:43.757Z,10.15
2019-01-26T20:47:16.267Z,10.63
2019-01-26T20:49:48.777Z,10.32
2019-01-26T20:52:21.280Z,9.78
2019-01-26T20:54:53.724Z,10.95
2019-01-26T20:57:26.247Z,10.00
2019-01-26T20:59:58.783Z,10.68
2019-01-26T21:02:31.299Z,10.80
2019-01-26T21:05:04.365Z,11.48
2019-01-26T21:07:36.343Z,10.58
2019-01-26T21:10:10.906Z,10.35
2019-01-26T21:12:43.455Z,10.78
2019-01-26T21:15:15.947Z,10.88
2019-01-26T21:17:48.422Z,9.83
2019-01-26T21:20:22.367Z,11.12
2019-01-26T21:22:54.828Z,10.85
2019-01-26T21:25:27.368Z,10.63
2019-01-26T21:27:59.968Z,11.18
2019-01-26T21:30:31.482Z,10.60
2019-01-26T21:33:03.985Z,10.63
2019-01-26T21:35:36.470Z,10.55
2019-01-26T21:38:08.999Z,10.68
2019-01-26T21:40:41.490Z,10.93
2019-01-26T21:43:13.102Z,11.25
2019-01-26T21:45:45.607Z,11.83
2019-01-26T21:48:18.068Z,10.35
2019-01-26T21:50:50.611Z,11.45
2019-01-26T21:53:24.375Z,10.55
2019-01-26T21:55:56.872Z,10.78
2019-01-26T21:58:28.440Z,11.12
2019-01-26T22:01:00.931Z,11.48
2019-01-26T22:03:33.450Z,11.43
2019-01-26T22:06:05.906Z,10.48
2019-01-26T22:08:38.510Z,11.10
2019-01-26T22:11:11.639Z,10.90
2019-01-26T22:13:44.207Z,11.28
2019-01-26T22:16:16.704Z,11.45
2019-01-26T22:18:49.206Z,11.40
2019-01-26T22:21:21.695Z,10.82
2019-01-26T22:23:53.224Z,11.65
2019-01-26T22:26:25.720Z,10.85
2019-01-26T22:28:58.241Z,11.45
2019-01-26T22:31:30.728Z,11.00
2019-01-26T22:34:03.253Z,11.25
2019-01-26T22:36:35.777Z,10.82
2019-01-26T22:39:09.811Z,10.32
2019-01-26T22:41:42.349Z,10.90
2019-01-26T22:44:14.887Z,10.80
2019-01-26T22:46:47.379Z,10.38
2019-01-26T22:49:19.883Z,10.80
2019-01-26T22:51:53.403Z,10.23
2019-01-26T22:54:26.154Z,10.28
2019-01-26T22:56:59.645Z,10.70
2019-01-26T22:59:32.161Z,10.10
2019-01-26T23:02:05.721Z,9.83
2019-01-26T23:04:43.235Z,9.65
2019-01-26T23:07:23.931Z,9.70
2019-01-26T23:10:02.537Z,10.00
2019-01-26T23:12:37.166Z,9.48
2019-01-26T23:15:40.016Z,9.70
2019-01-26T23:18:33.645Z,10.30
2019-01-26T23:21:14.051Z,10.00
2019-01-26T23:24:03.470Z,9.43
2019-01-26T23:26:44.944Z,9.63
2019-01-26T23:29:25.608Z,9.70
2019-01-26T23:31:58.116Z,9.25
2019-01-26T23:34:30.619Z,9.60
2019-01-26T23:37:03.483Z,9.28
2019-01-26T23:39:35.975Z,9.98
2019-01-26T23:42:08.479Z,9.08
2019-01-26T23:44:41.020Z,9.75
2019-01-26T23:47:14.533Z,9.63
2019-01-26T23:49:47.068Z,9.25
2019-01-26T23:52:20.843Z,9.18
2019-01-26T23:54:54.609Z,9.18
2019-01-26T23:57:27.099Z,8.90
2019-01-26T23:59:59.580Z,9.45
